createdAt,value
2023-12-26T00:00:07.573Z,6.22
2023-12-26T00:02:40.140Z,6.20
2023-12-26T00:05:07.630Z,6.17
2023-12-26T00:07:34.795Z,6.21
2023-12-26T00:10:02.008Z,6.22
2023-12-26T00:12:29.149Z,6.21
2023-12-26T00:14:56.284Z,6.20
2023-12-26T00:17:23.502Z,6.18
2023-12-26T00:19:51.177Z,6.16
2023-12-26T00:22:18.389Z,6.14
2023-12-26T00:24:45.563Z,6.16
2023-12-26T00:27:12.750Z,6.18
2023-12-26T00:29:39.941Z,6.17
2023-12-26T00:32:07.268Z,6.14
2023-12-26T00:34:35.273Z,6.15
2023-12-26T00:37:02.847Z,6.15
2023-12-26T00:39:29.914Z,6.15
2023-12-26T00:41:57.075Z,6.15
2023-12-26T00:44:24.215Z,6.13
2023-12-26T00:46:51.614Z,6.12
2023-12-26T00:49:18.782Z,6.14
2023-12-26T00:51:45.970Z,6.12
2023-12-26T00:54:13.234Z,6.10
2023-12-26T00:56:40.474Z,6.10
2023-12-26T00:59:07.708Z,6.10
2023-12-26T01:01:34.852Z,6.09
2023-12-26T01:04:02.062Z,6.06
2023-12-26T01:06:29.427Z,6.07
2023-12-26T01:08:56.613Z,6.08
2023-12-26T01:11:23.926Z,6.09
2023-12-26T01:13:51.076Z,6.06
2023-12-26T01:16:18.162Z,6.06
2023-12-26T01:18:45.445Z,6.04
2023-12-26T01:21:12.727Z,6.03
2023-12-26T01:23:39.972Z,6.03
2023-12-26T01:26:07.099Z,5.99
2023-12-26T01:28:34.197Z,5.99
2023-12-26T01:31:01.654Z,5.93
2023-12-26T01:33:28.954Z,5.93
2023-12-26T01:35:56.186Z,5.93
2023-12-26T01:38:23.322Z,5.91
2023-12-26T01:40:50.477Z,5.86
2023-12-26T01:43:18.376Z,5.82
2023-12-26T01:45:46.151Z,5.81
2023-12-26T01:48:13.697Z,5.81
2023-12-26T01:50:40.948Z,5.84
2023-12-26T01:53:08.573Z,5.87
2023-12-26T01:55:36.315Z,5.80
2023-12-26T01:58:03.476Z,5.77
2023-12-26T02:00:30.919Z,5.77
2023-12-26T02:02:58.954Z,5.73
2023-12-26T02:05:26.952Z,5.74
2023-12-26T02:07:54.731Z,5.74
2023-12-26T02:10:21.844Z,5.74
2023-12-26T02:12:48.964Z,5.72
2023-12-26T02:15:16.268Z,5.72
2023-12-26T02:17:45.110Z,5.70
2023-12-26T02:20:12.310Z,5.70
2023-12-26T02:22:39.759Z,5.65
2023-12-26T02:25:10.486Z,5.65
2023-12-26T02:27:39.030Z,5.64
2023-12-26T02:30:09.643Z,5.66
2023-12-26T02:32:38.670Z,5.67
2023-12-26T02:35:07.887Z,5.68
2023-12-26T02:37:38.182Z,5.68
2023-12-26T02:40:05.657Z,5.68
2023-12-26T02:42:33.911Z,5.64
2023-12-26T02:45:01.207Z,5.63
2023-12-26T02:47:28.575Z,5.64
2023-12-26T02:49:56.932Z,5.61
2023-12-26T02:52:24.032Z,5.60
2023-12-26T02:58:01.974Z,5.55
2023-12-26T03:00:29.198Z,5.54
2023-12-26T03:02:59.535Z,5.56
2023-12-26T03:05:28.349Z,5.56
2023-12-26T03:07:55.678Z,5.55
2023-12-26T03:10:22.743Z,5.54
2023-12-26T03:12:49.843Z,5.54
2023-12-26T03:15:17.839Z,5.52
2023-12-26T03:17:45.238Z,5.53
2023-12-26T03:20:12.627Z,5.54
2023-12-26T03:22:43.189Z,5.52
2023-12-26T03:25:10.340Z,5.48
2023-12-26T03:27:37.422Z,5.46
2023-12-26T03:30:04.952Z,5.44
2023-12-26T03:32:32.219Z,5.42
2023-12-26T03:34:59.417Z,5.38
2023-12-26T03:37:26.469Z,5.38
2023-12-26T03:39:53.587Z,5.37
2023-12-26T03:42:20.769Z,5.37
2023-12-26T03:44:48.875Z,5.33
2023-12-26T03:47:16.175Z,5.30
2023-12-26T03:49:43.421Z,5.31
2023-12-26T03:52:10.709Z,5.29
2023-12-26T03:54:38.181Z,5.27
2023-12-26T03:57:05.752Z,5.25
2023-12-26T03:59:33.675Z,5.17
2023-12-26T04:02:02.620Z,5.17
2023-12-26T04:04:29.938Z,5.14
2023-12-26T04:06:57.492Z,5.17
2023-12-26T04:09:24.726Z,5.17
2023-12-26T04:11:51.974Z,5.16
2023-12-26T04:14:19.079Z,5.15
2023-12-26T04:16:46.185Z,5.15
2023-12-26T04:19:13.436Z,5.12
2023-12-26T04:21:40.733Z,5.12
2023-12-26T04:24:07.886Z,5.11
2023-12-26T04:26:36.503Z,5.13
2023-12-26T04:29:03.759Z,5.14
2023-12-26T04:31:31.017Z,5.17
2023-12-26T04:33:58.526Z,5.19
2023-12-26T04:36:25.688Z,5.21
2023-12-26T04:38:53.200Z,5.21
2023-12-26T04:41:20.308Z,5.24
2023-12-26T04:43:49.028Z,5.27
2023-12-26T04:46:20.391Z,5.30
2023-12-26T04:48:48.134Z,5.31
2023-12-26T04:51:16.998Z,5.34
2023-12-26T04:53:47.509Z,5.34
2023-12-26T04:56:18.224Z,5.35
2023-12-26T04:58:48.796Z,5.37
2023-12-26T05:01:16.698Z,5.33
2023-12-26T05:03:44.510Z,5.37
2023-12-26T05:06:12.155Z,5.37
2023-12-26T05:08:40.171Z,5.39
2023-12-26T05:11:08.298Z,5.38
2023-12-26T05:13:35.478Z,5.38
2023-12-26T05:16:05.683Z,5.40
2023-12-26T05:18:33.140Z,5.40
2023-12-26T05:21:00.840Z,5.37
2023-12-26T05:23:29.113Z,5.41
2023-12-26T05:26:04.793Z,5.44
2023-12-26T05:28:38.940Z,5.43
2023-12-26T05:31:06.179Z,5.44
2023-12-26T05:33:33.546Z,5.44
2023-12-26T05:36:00.950Z,5.46
2023-12-26T05:38:28.383Z,5.46
2023-12-26T05:40:55.566Z,5.47
2023-12-26T05:43:22.717Z,5.47
2023-12-26T05:45:49.911Z,5.50
2023-12-26T05:48:17.432Z,5.49
2023-12-26T05:50:44.811Z,5.51
2023-12-26T05:53:12.433Z,5.53
2023-12-26T05:55:39.962Z,5.52
2023-12-26T05:58:07.072Z,5.53
2023-12-26T06:00:34.255Z,5.53
2023-12-26T06:03:01.411Z,5.55
2023-12-26T06:05:28.712Z,5.56
2023-12-26T06:07:55.815Z,5.55
2023-12-26T06:10:22.946Z,5.51
2023-12-26T06:12:50.085Z,5.49
2023-12-26T06:15:17.318Z,5.51
2023-12-26T06:17:46.778Z,5.50
2023-12-26T06:20:16.291Z,5.49
2023-12-26T06:22:43.892Z,5.48
2023-12-26T06:25:11.007Z,5.48
2023-12-26T06:27:38.776Z,5.44
2023-12-26T06:30:06.511Z,5.44
2023-12-26T06:32:33.689Z,5.44
2023-12-26T06:35:03.055Z,5.46
2023-12-26T06:37:31.602Z,5.44
2023-12-26T06:39:58.715Z,5.45
2023-12-26T06:42:27.379Z,5.40
2023-12-26T06:44:54.547Z,5.40
2023-12-26T06:47:21.691Z,5.42
2023-12-26T06:49:51.081Z,5.41
2023-12-26T06:52:18.704Z,5.43
2023-12-26T06:54:46.068Z,5.41
2023-12-26T06:57:17.203Z,5.35
2023-12-26T06:59:45.314Z,5.41
2023-12-26T07:02:16.225Z,5.37
2023-12-26T07:04:45.574Z,5.34
2023-12-26T07:07:12.789Z,5.30
2023-12-26T07:09:40.013Z,5.28
2023-12-26T07:12:08.039Z,5.29
2023-12-26T07:14:35.260Z,5.30
2023-12-26T07:17:02.586Z,5.37
2023-12-26T07:19:29.889Z,5.36
2023-12-26T07:21:57.117Z,5.37
2023-12-26T07:24:24.241Z,5.34
2023-12-26T07:26:51.377Z,5.34
2023-12-26T07:29:20.950Z,5.35
2023-12-26T07:31:48.550Z,5.35
2023-12-26T07:34:15.709Z,5.39
2023-12-26T07:36:42.855Z,5.44
2023-12-26T07:39:10.039Z,5.41
2023-12-26T07:41:37.204Z,5.44
2023-12-26T07:44:04.453Z,5.46
2023-12-26T07:46:32.108Z,5.46
2023-12-26T07:49:12.432Z,5.52
2023-12-26T07:51:39.749Z,5.52
2023-12-26T07:54:06.976Z,5.48
2023-12-26T07:56:34.151Z,5.52
2023-12-26T07:59:01.280Z,5.54
2023-12-26T08:01:28.552Z,5.53
2023-12-26T08:03:55.708Z,5.56
2023-12-26T08:06:24.284Z,5.66
2023-12-26T08:08:52.326Z,5.67
2023-12-26T08:11:20.198Z,5.65
2023-12-26T08:13:47.262Z,5.65
2023-12-26T08:16:14.559Z,5.73
2023-12-26T08:18:41.849Z,5.76
2023-12-26T08:21:09.082Z,5.86
2023-12-26T08:23:37.354Z,5.83
2023-12-26T08:26:08.173Z,5.84
2023-12-26T08:28:35.304Z,5.91
2023-12-26T08:31:02.511Z,5.91
2023-12-26T08:33:31.201Z,5.96
2023-12-26T08:35:58.468Z,5.96
2023-12-26T08:38:25.756Z,6.01
2023-12-26T08:40:52.895Z,6.04
2023-12-26T08:43:20.057Z,6.04
2023-12-26T08:45:47.153Z,6.09
2023-12-26T08:48:14.467Z,6.12
2023-12-26T08:50:41.717Z,6.15
2023-12-26T08:53:09.489Z,6.16
2023-12-26T08:55:36.622Z,6.18
2023-12-26T08:58:03.773Z,6.19
2023-12-26T09:00:30.805Z,6.17
2023-12-26T09:03:05.857Z,6.18
2023-12-26T09:05:35.003Z,6.16
2023-12-26T09:08:02.358Z,6.16
2023-12-26T09:10:29.501Z,6.17
2023-12-26T09:12:56.976Z,6.18
2023-12-26T09:15:24.358Z,6.17
2023-12-26T09:17:51.583Z,6.20
2023-12-26T09:20:18.845Z,6.21
2023-12-26T09:22:45.998Z,6.27
2023-12-26T09:25:14.644Z,6.28
2023-12-26T09:27:50.328Z,6.28
2023-12-26T09:30:19.534Z,6.31
2023-12-26T09:32:47.072Z,6.30
2023-12-26T09:35:14.348Z,6.31
2023-12-26T09:37:41.516Z,6.34
2023-12-26T09:40:11.890Z,6.35
2023-12-26T09:42:42.951Z,6.34
2023-12-26T09:45:12.446Z,6.36
2023-12-26T09:47:42.929Z,6.43
2023-12-26T09:50:11.293Z,6.45
2023-12-26T09:52:40.168Z,6.44
2023-12-26T09:55:08.223Z,6.45
2023-12-26T09:57:35.422Z,6.47
2023-12-26T10:00:03.896Z,6.47
2023-12-26T10:02:39.391Z,6.53
2023-12-26T10:05:07.011Z,6.58
2023-12-26T10:07:34.281Z,6.57
2023-12-26T10:10:02.007Z,6.56
2023-12-26T10:12:32.626Z,6.56
2023-12-26T10:15:02.822Z,6.56
2023-12-26T10:17:31.322Z,6.54
2023-12-26T10:19:58.929Z,6.57
2023-12-26T10:22:26.342Z,6.58
2023-12-26T10:24:56.346Z,6.58
2023-12-26T10:27:23.776Z,6.57
2023-12-26T10:29:54.945Z,6.58
2023-12-26T10:32:26.102Z,6.59
2023-12-26T10:34:53.805Z,6.58
2023-12-26T10:37:24.170Z,6.59
2023-12-26T10:39:51.299Z,6.56
2023-12-26T10:42:21.310Z,6.56
2023-12-26T10:44:48.727Z,6.57
2023-12-26T10:47:17.127Z,6.57
2023-12-26T10:49:44.814Z,6.61
2023-12-26T10:52:14.077Z,6.64
2023-12-26T10:54:41.749Z,6.70
2023-12-26T10:57:09.793Z,6.72
2023-12-26T10:59:37.105Z,6.71
2023-12-26T11:02:13.956Z,6.68
2023-12-26T11:04:44.977Z,6.71
2023-12-26T11:07:12.629Z,6.80
2023-12-26T11:09:39.847Z,6.80
2023-12-26T11:12:06.982Z,6.82
2023-12-26T11:14:34.296Z,6.84
2023-12-26T11:17:01.484Z,6.84
2023-12-26T11:19:28.830Z,6.81
2023-12-26T11:21:55.995Z,6.83
2023-12-26T11:24:23.187Z,6.85
2023-12-26T11:26:50.879Z,6.86
2023-12-26T11:29:18.181Z,6.83
2023-12-26T11:31:45.313Z,6.82
2023-12-26T11:34:14.531Z,6.79
2023-12-26T11:36:45.460Z,6.77
2023-12-26T11:39:17.184Z,6.74
2023-12-26T11:41:44.790Z,6.73
2023-12-26T11:44:12.271Z,6.70
2023-12-26T11:46:39.491Z,6.71
2023-12-26T11:49:06.787Z,6.70
2023-12-26T11:51:34.156Z,6.68
2023-12-26T11:54:01.739Z,6.68
2023-12-26T11:56:28.907Z,6.71
2023-12-26T11:58:56.032Z,6.74
2023-12-26T12:01:23.242Z,6.72
2023-12-26T12:03:50.576Z,6.72
2023-12-26T12:06:17.954Z,6.71
2023-12-26T12:09:03.183Z,6.72
2023-12-26T12:11:30.397Z,6.76
2023-12-26T12:13:57.640Z,6.74
2023-12-26T12:16:25.586Z,6.73
2023-12-26T12:19:04.135Z,6.75
2023-12-26T12:21:37.167Z,6.78
2023-12-26T12:24:07.441Z,6.79
2023-12-26T12:26:53.473Z,6.81
2023-12-26T12:29:20.811Z,6.84
2023-12-26T12:31:47.932Z,6.89
2023-12-26T12:34:15.281Z,6.87
2023-12-26T12:36:43.116Z,6.87
2023-12-26T12:39:14.203Z,6.89
2023-12-26T12:41:41.745Z,6.86
2023-12-26T12:44:16.451Z,6.82
2023-12-26T12:46:44.984Z,6.81
2023-12-26T12:49:13.223Z,6.80
2023-12-26T12:51:41.223Z,6.79
2023-12-26T12:54:08.382Z,6.76
2023-12-26T12:56:35.507Z,6.77
2023-12-26T12:59:02.819Z,6.75
2023-12-26T13:01:30.741Z,6.73
2023-12-26T13:03:57.932Z,6.71
2023-12-26T13:06:25.099Z,6.68
2023-12-26T13:08:52.286Z,6.71
2023-12-26T13:11:19.421Z,6.65
2023-12-26T13:13:46.542Z,6.67
2023-12-26T13:16:13.677Z,6.67
2023-12-26T13:18:40.929Z,6.70
2023-12-26T13:21:16.380Z,6.67
2023-12-26T13:23:44.618Z,6.65
2023-12-26T13:26:11.752Z,6.65
2023-12-26T13:28:42.235Z,6.62
2023-12-26T13:31:12.431Z,6.65
2023-12-26T13:33:39.699Z,6.61
2023-12-26T13:36:06.981Z,6.59
2023-12-26T13:38:34.201Z,6.57
2023-12-26T13:41:01.393Z,6.61
2023-12-26T13:43:35.138Z,6.57
2023-12-26T13:46:03.568Z,6.53
2023-12-26T13:48:30.841Z,6.55
2023-12-26T13:50:58.149Z,6.51
2023-12-26T13:53:26.198Z,6.50
2023-12-26T13:55:53.299Z,6.49
2023-12-26T13:58:20.437Z,6.51
2023-12-26T14:00:47.726Z,6.47
2023-12-26T14:03:14.961Z,6.48
2023-12-26T14:05:42.204Z,6.48
2023-12-26T14:08:09.420Z,6.48
2023-12-26T14:10:36.487Z,6.49
2023-12-26T14:13:03.582Z,6.46
2023-12-26T14:15:30.699Z,6.47
2023-12-26T14:17:58.033Z,6.50
2023-12-26T14:20:25.280Z,6.51
2023-12-26T14:22:52.429Z,6.53
2023-12-26T14:25:19.494Z,6.51
2023-12-26T14:27:46.711Z,6.48
2023-12-26T14:30:19.421Z,6.53
2023-12-26T14:32:47.039Z,6.52
2023-12-26T14:35:14.571Z,6.55
2023-12-26T14:37:41.852Z,6.55
2023-12-26T14:40:09.092Z,6.55
2023-12-26T14:42:36.225Z,6.56
2023-12-26T14:45:03.437Z,6.55
2023-12-26T14:47:30.804Z,6.53
2023-12-26T14:49:58.001Z,6.54
2023-12-26T14:52:25.267Z,6.55
2023-12-26T14:54:52.452Z,6.53
2023-12-26T14:57:19.672Z,6.52
2023-12-26T14:59:46.887Z,6.53
2023-12-26T15:02:14.639Z,6.52
2023-12-26T15:04:41.853Z,6.52
2023-12-26T15:07:09.301Z,6.51
2023-12-26T15:09:36.633Z,6.50
2023-12-26T15:12:04.150Z,6.49
2023-12-26T15:14:41.885Z,6.42
2023-12-26T15:17:11.448Z,6.40
2023-12-26T15:19:38.857Z,6.38
2023-12-26T15:22:06.047Z,6.35
2023-12-26T15:24:33.435Z,6.26
2023-12-26T15:27:00.872Z,6.23
2023-12-26T15:29:28.150Z,6.22
2023-12-26T15:31:55.403Z,6.25
2023-12-26T15:34:22.892Z,6.20
2023-12-26T15:36:50.611Z,6.19
2023-12-26T15:39:20.115Z,6.17
2023-12-26T15:41:47.871Z,6.16
2023-12-26T15:44:15.305Z,6.12
2023-12-26T15:46:42.586Z,6.08
2023-12-26T15:49:09.923Z,6.09
2023-12-26T15:51:37.118Z,6.07
2023-12-26T15:54:04.464Z,6.11
2023-12-26T15:56:32.691Z,6.05
2023-12-26T15:59:00.000Z,6.05
2023-12-26T16:01:27.160Z,6.05
2023-12-26T16:03:58.012Z,6.06
2023-12-26T16:06:27.151Z,6.03
2023-12-26T16:08:55.771Z,6.00
2023-12-26T16:11:22.947Z,6.01
2023-12-26T16:13:50.059Z,5.98
2023-12-26T16:16:18.200Z,6.00
2023-12-26T16:18:45.596Z,5.99
2023-12-26T16:21:12.966Z,5.98
2023-12-26T16:23:40.155Z,5.98
2023-12-26T16:26:07.776Z,5.96
2023-12-26T16:28:35.319Z,5.96
2023-12-26T16:31:03.474Z,5.93
2023-12-26T16:33:30.904Z,5.94
2023-12-26T16:35:59.250Z,5.92
2023-12-26T16:38:26.616Z,5.94
2023-12-26T16:40:56.357Z,5.93
2023-12-26T16:43:23.628Z,5.94
2023-12-26T16:45:50.875Z,5.96
2023-12-26T16:48:43.857Z,5.96
2023-12-26T16:51:14.428Z,5.96
2023-12-26T16:54:09.409Z,5.95
2023-12-26T16:56:36.519Z,5.93
2023-12-26T16:59:53.906Z,5.93
2023-12-26T17:02:24.777Z,5.94
2023-12-26T17:04:55.208Z,5.93
2023-12-26T17:07:22.482Z,5.94
2023-12-26T17:09:49.606Z,5.94
2023-12-26T17:12:17.123Z,5.93
2023-12-26T17:14:44.382Z,5.91
2023-12-26T17:17:11.571Z,5.93
2023-12-26T17:19:40.228Z,5.88
2023-12-26T17:22:11.771Z,5.88
2023-12-26T17:24:41.273Z,5.88
2023-12-26T17:27:08.538Z,5.87
2023-12-26T17:29:35.644Z,5.83
2023-12-26T17:32:57.639Z,5.85
2023-12-26T17:35:44.265Z,5.82
2023-12-26T17:38:24.668Z,5.83
2023-12-26T17:41:41.755Z,5.83
2023-12-26T17:44:09.924Z,5.83
2023-12-26T17:46:40.489Z,5.83
2023-12-26T17:49:08.376Z,5.82
2023-12-26T17:51:36.262Z,5.84
2023-12-26T17:54:03.664Z,5.81
2023-12-26T17:56:31.303Z,5.85
2023-12-26T17:59:00.406Z,5.82
2023-12-26T18:01:28.513Z,5.82
2023-12-26T18:04:03.446Z,5.80
2023-12-26T18:06:31.578Z,5.82
2023-12-26T18:08:59.065Z,5.81
2023-12-26T18:11:26.292Z,5.83
2023-12-26T18:13:53.552Z,5.79
2023-12-26T18:16:20.834Z,5.82
2023-12-26T18:19:12.813Z,5.80
2023-12-26T18:21:46.623Z,5.80
2023-12-26T18:24:13.864Z,5.78
2023-12-26T18:26:41.122Z,5.79
2023-12-26T18:29:09.293Z,5.81
2023-12-26T18:31:36.673Z,5.80
2023-12-26T18:34:04.203Z,5.81
2023-12-26T18:36:34.462Z,5.82
2023-12-26T18:39:01.825Z,5.84
2023-12-26T18:41:28.942Z,5.84
2023-12-26T18:46:38.244Z,5.84
2023-12-26T18:49:08.678Z,5.85
2023-12-26T18:54:46.106Z,5.84
2023-12-26T18:57:14.566Z,5.81
2023-12-26T18:59:47.402Z,5.86
2023-12-26T19:02:15.047Z,5.86
2023-12-26T19:04:44.103Z,5.84
2023-12-26T19:07:12.194Z,5.87
2023-12-26T19:12:46.139Z,5.84
2023-12-26T19:15:13.296Z,5.83
2023-12-26T19:17:40.502Z,5.82
2023-12-26T19:20:10.504Z,5.81
2023-12-26T19:22:37.674Z,5.83
2023-12-26T19:25:13.911Z,5.84
2023-12-26T19:27:41.256Z,5.82
2023-12-26T19:30:11.537Z,5.81
2023-12-26T19:32:38.823Z,5.82
2023-12-26T19:35:06.138Z,5.81
2023-12-26T19:37:34.373Z,5.83
2023-12-26T19:40:01.565Z,5.83
2023-12-26T19:42:28.767Z,5.82
2023-12-26T19:44:56.891Z,5.82
2023-12-26T19:47:25.135Z,5.79
2023-12-26T19:49:52.998Z,5.81
2023-12-26T19:52:20.176Z,5.77
2023-12-26T19:54:47.368Z,5.80
2023-12-26T19:57:14.692Z,5.78
2023-12-26T19:59:41.782Z,5.82
2023-12-26T20:02:11.209Z,5.80
2023-12-26T20:04:41.862Z,5.76
2023-12-26T20:07:09.138Z,5.76
2023-12-26T20:09:38.216Z,5.77
2023-12-26T20:12:05.815Z,5.71
2023-12-26T20:14:34.239Z,5.71
2023-12-26T20:17:01.865Z,5.69
2023-12-26T20:19:29.032Z,5.66
2023-12-26T20:21:56.265Z,5.66
2023-12-26T20:24:23.993Z,5.65
2023-12-26T20:26:54.712Z,5.62
2023-12-26T20:29:26.014Z,5.60
2023-12-26T20:31:53.589Z,5.59
2023-12-26T20:34:35.792Z,5.58
2023-12-26T20:37:28.957Z,5.51
2023-12-26T20:39:56.069Z,5.51
2023-12-26T20:42:23.238Z,5.44
2023-12-26T20:44:50.566Z,5.44
2023-12-26T20:47:17.739Z,5.41
2023-12-26T20:50:09.930Z,5.39
2023-12-26T20:52:37.595Z,5.37
2023-12-26T20:55:04.819Z,5.38
2023-12-26T20:57:32.076Z,5.36
2023-12-26T20:59:59.334Z,5.37
2023-12-26T21:02:26.466Z,5.36
2023-12-26T21:04:53.570Z,5.36
2023-12-26T21:07:20.697Z,5.35
2023-12-26T21:09:47.956Z,5.37
2023-12-26T21:12:15.128Z,5.37
2023-12-26T21:14:42.994Z,5.40
2023-12-26T21:17:11.118Z,5.41
2023-12-26T21:20:06.964Z,5.40
2023-12-26T21:22:43.808Z,5.51
2023-12-26T21:25:10.992Z,5.47
2023-12-26T21:27:38.181Z,5.45
2023-12-26T21:30:05.837Z,5.44
2023-12-26T21:32:33.118Z,5.44
2023-12-26T21:35:01.103Z,5.45
2023-12-26T21:37:28.574Z,5.52
2023-12-26T21:39:55.674Z,5.51
2023-12-26T21:42:25.342Z,5.47
2023-12-26T21:44:52.568Z,5.43
2023-12-26T21:47:20.073Z,5.44
2023-12-26T21:49:47.293Z,5.43
2023-12-26T21:52:17.341Z,5.47
2023-12-26T21:54:44.521Z,5.48
2023-12-26T21:57:39.298Z,5.51
2023-12-26T22:00:09.828Z,5.48
2023-12-26T22:02:38.078Z,5.47
2023-12-26T22:05:05.406Z,5.48
2023-12-26T22:07:32.515Z,5.49
2023-12-26T22:09:59.595Z,5.48
2023-12-26T22:12:27.666Z,5.49
2023-12-26T22:14:58.126Z,5.51
2023-12-26T22:17:27.427Z,5.54
2023-12-26T22:19:55.829Z,5.56
2023-12-26T22:22:23.506Z,5.52
2023-12-26T22:24:50.891Z,5.59
2023-12-26T22:27:20.998Z,5.55
2023-12-26T22:29:51.723Z,5.52
2023-12-26T22:32:20.003Z,5.50
2023-12-26T22:34:47.534Z,5.51
2023-12-26T22:37:14.846Z,5.48
2023-12-26T22:39:42.821Z,5.48
2023-12-26T22:42:09.997Z,5.46
2023-12-26T22:44:37.233Z,5.44
2023-12-26T22:47:04.481Z,5.42
2023-12-26T22:49:31.718Z,5.40
2023-12-26T22:51:59.027Z,5.39
2023-12-26T22:54:26.239Z,5.38
2023-12-26T22:56:53.540Z,5.35
2023-12-26T22:59:20.829Z,5.31
2023-12-26T23:01:49.525Z,5.29
2023-12-26T23:04:16.824Z,5.25
2023-12-26T23:06:44.416Z,5.23
2023-12-26T23:09:12.602Z,5.21
2023-12-26T23:11:42.677Z,5.19
2023-12-26T23:14:10.689Z,5.19
2023-12-26T23:16:41.649Z,5.19
2023-12-26T23:19:10.320Z,5.18
2023-12-26T23:21:37.673Z,5.16
2023-12-26T23:24:05.343Z,5.12
2023-12-26T23:26:32.694Z,5.06
2023-12-26T23:29:01.194Z,5.08
2023-12-26T23:31:32.040Z,5.08
2023-12-26T23:34:00.161Z,5.08
2023-12-26T23:36:27.626Z,5.05
2023-12-26T23:38:55.622Z,5.02
2023-12-26T23:41:22.776Z,5.01
2023-12-26T23:43:49.903Z,4.97
2023-12-26T23:46:17.215Z,4.97
2023-12-26T23:48:44.721Z,4.96
2023-12-26T23:51:12.322Z,4.98
2023-12-26T23:53:39.543Z,4.97
2023-12-26T23:56:07.180Z,4.97
2023-12-26T23:58:34.455Z,4.94
